Terminal Aerodrome Forecast
Issued by NWS Flagstaff, AZ

Current Version | Previous Version | Text Only | Print | Product List | Glossary On
Versions: 1 2 3 4 5 6 7 8 9 10 11 12 13 14 15
000
FTUS45 KFGZ 180500
TAFINW
TAF
KINW 180520Z 1806/1906 VRB03KT P6SM SCT060
     FM181900 03006KT P6SM SCT070 BKN100
      TEMPO 1820/1824 5SM -TSRA BKN050CB=

USA.gov is the U.S. government's official web portal to all federal, state and local government web resources and services.